Silver Wind — C6FG2 — position and weather

sailwx.info

Track history (hours):
 
Tides and Currents Weather Stations Pressure Air Temp Water Temp Dewpoint Dewpoint Depression Visibility Wind Speed Wind Dir Waves Ship Positions

Silver Wind

Operator: V Ships Leisure

Last reported at 2017-May-25 22:03 UTC. Time now 2017-May-28 12:21 UTC.
Position N 39°33' W 009°42'.

Length 156 m; draft 5.7 m.

Type: Passenger vessel. MMSI: 308814000.

Date/timePositionNaut miles runAvg speedWind from/ knotsBaromVisibWave heightAir tempDewpointWater temp
2017-May-25 22:03N 39°33' W 009°42'114.8
2017-May-25 22:00N 39°32' W 009°42'914.0
2017-May-25 21:22N 39°24' W 009°43'513.9
2017-May-25 21:00N 39°19' W 009°43'714.0
2017-May-25 20:30N 39°12' W 009°43'714.1
2017-May-25 20:00N 39°05' W 009°43'713.7
2017-May-25 19:30N 38°58' W 009°43'714.3
2017-May-25 19:00N 38°51' W 009°43'713.9
2017-May-25 18:30N 38°44' W 009°42'612.2
2017-May-25 18:01N 38°39' W 009°38'714.1
2017-May-25 17:31N 38°37' W 009°29'612.7
2017-May-25 17:01N 38°38' W 009°21'713.5
2017-May-25 16:30N 38°41' W 009°14'3 5.4
2017-May-25 15:55N 38°42' W 009°10'0 0.0
2017-May-25 15:28N 38°42' W 009°10'0 0.0
2017-May-25 14:52N 38°42' W 009°10'0 0.0
2017-May-25 13:55N 38°42' W 009°10'0 0.0
2017-May-25 13:28N 38°42' W 009°10'0 0.0
2017-May-25 12:58N 38°42' W 009°10'0 0.0
2017-May-25 12:25N 38°42' W 009°10'0 0.0
2017-May-25 11:58N 38°42' W 009°10'0 0.0
2017-May-25 11:28N 38°42' W 009°10'0 0.0
2017-May-25 10:58N 38°42' W 009°10'0 0.0
2017-May-25 10:28N 38°42' W 009°10'0 0.0
2017-May-25 09:58N 38°42' W 009°10'0 0.0
2017-May-25 09:28N 38°42' W 009°10'0 0.0
2017-May-25 08:58N 38°42' W 009°10'0 0.0
2017-May-25 08:28N 38°42' W 009°10'0 0.0
2017-May-25 07:58N 38°42' W 009°10'0 0.0
2017-May-25 07:30N 38°42' W 009°10'0 0.3
2017-May-25 07:00N 38°42' W 009°10'3 5.6
2017-May-25 06:27N 38°41' W 009°14'3 7.4
2017-May-25 06:00N 38°41' W 009°18'611.2
2017-May-25 05:30N 38°37' W 009°23'4 8.6
2017-May-25 05:00N 38°33' W 009°25'611.4
2017-May-25 04:30N 38°27' W 009°25'612.4
2017-May-25 04:00N 38°21' W 009°25'713.3
2017-May-25 03:30N 38°14' W 009°25'713.1
2017-May-25 03:00N 38°08' W 009°25'612.3
2017-May-25 02:30N 38°02' W 009°24'612.0
2017-May-25 02:00N 37°56' W 009°23'611.6
2017-May-25 01:30N 37°50' W 009°23'612.6
2017-May-25 01:00N 37°44' W 009°23'612.3
2017-May-25 00:30N 37°37' W 009°22'612.9
2017-May-25 00:00N 37°31' W 009°22'612.5
2017-May-24 23:30N 37°25' W 009°22'612.4
2017-May-24 23:00N 37°19' W 009°22'612.5
2017-May-24 22:30N 37°12' W 009°22'612.6
2017-May-24 22:00N 37°06' W 009°21'612.4
2017-May-24 21:30N 36°60' W 009°21'612.5
2017-May-24 21:00N 36°54' W 009°19'612.6
2017-May-24 20:30N 36°49' W 009°14'612.2
2017-May-24 20:00N 36°45' W 009°08'1611.1
2017-May-24 18:31N 36°51' W 008°49'213.0
2017-May-24 18:23N 36°52' W 008°48'513.0
2017-May-24 18:00N 36°56' W 008°43'613.1
2017-May-24 17:30N 37°01' W 008°38'713.3
2017-May-24 17:00N 37°06' W 008°33'2 3.5
2017-May-24 16:27N 37°07' W 008°32'0 0.0
2017-May-24 15:57N 37°07' W 008°32'0 0.0
2017-May-24 15:27N 37°07' W 008°32'0 0.0
2017-May-24 14:57N 37°07' W 008°32'0 0.0
2017-May-24 13:57N 37°07' W 008°32'0 0.0
2017-May-24 13:30N 37°07' W 008°32'0 0.0
2017-May-24 13:00N 37°07' W 008°32'0 0.0
2017-May-24 12:30N 37°07' W 008°32'0 0.0
2017-May-24 12:00N 37°07' W 008°32'0 0.0
2017-May-24 11:27N 37°07' W 008°32'0 0.0
2017-May-24 10:57N 37°07' W 008°32'0 0.0
2017-May-24 10:30N 37°07' W 008°32'0 0.0
2017-May-24 09:57N 37°07' W 008°32'0 0.0
2017-May-24 09:30N 37°07' W 008°32'0 0.0
2017-May-24 08:33N 37°07' W 008°32'0 0.0
2017-May-24 08:27N 37°07' W 008°32'0 0.0
2017-May-24 07:48N 37°07' W 008°32'0 0.0
2017-May-24 07:27N 37°07' W 008°32'0 0.0
2017-May-24 07:00N 37°07' W 008°32'0 0.1
2017-May-24 06:30N 37°07' W 008°32'510.2
2017-May-24 06:00N 37°02' W 008°30'612.5
2017-May-24 05:30N 36°60' W 008°23'612.1
2017-May-24 05:01N 36°58' W 008°16'612.1
2017-May-24 04:31N 36°55' W 008°09'612.2
2017-May-24 04:01N 36°53' W 008°01'712.5
2017-May-24 03:27N 36°51' W 007°53'125 4.4
2017-May-22 22:47N 35°60' W 005°31'413.1
2017-May-22 22:30N 36°01' W 005°26'612.3
2017-May-22 22:00N 36°03' W 005°19'612.8
2017-May-22 21:30N 36°06' W 005°12'612.9
2017-May-22 21:00N 36°10' W 005°06'188 6.8
2017-May-21 17:22N 37°11' W 001°24'514.0
2017-May-21 17:00N 37°14' W 001°20'25 2.0
2017-May-21 04:51N 37°33' W 000°59'410.6
2017-May-21 04:27N 37°32' W 000°54'511.9
2017-May-21 04:00N 37°32' W 000°47'611.9
2017-May-21 03:28N 37°33' W 000°39'611.8
2017-May-21 03:00N 37°35' W 000°33'612.5
2017-May-21 02:30N 37°41' W 000°28'1112.6
2017-May-21 01:39N 37°50' W 000°21'1212.5
2017-May-21 00:41N 37°60' W 000°12'2312.5
2017-May-20 22:53N 38°19' E 000°03'512.8
2017-May-20 22:30N 38°23' E 000°07'612.7
2017-May-20 22:00N 38°28' E 000°11'6310.9
2017-May-20 16:16N 39°26' W 000°19'1 3.9
2017-May-20 15:54N 39°27' W 000°20'0 0.0
2017-May-20 15:24N 39°27' W 000°20'0 0.0
2017-May-20 15:00N 39°27' W 000°20'0 0.0
2017-May-20 13:42N 39°27' W 000°20'0 0.0
2017-May-20 12:24N 39°27' W 000°20'0 0.0
2017-May-20 10:36N 39°27' W 000°20'0 0.1
2017-May-20 10:30N 39°27' W 000°20'0 0.0
2017-May-20 09:48N 39°27' W 000°20'0 0.0
2017-May-20 09:24N 39°27' W 000°20'0 0.0
2017-May-20 09:00N 39°27' W 000°20'0 0.0
2017-May-20 08:30N 39°27' W 000°20'0 0.0
2017-May-20 08:00N 39°27' W 000°20'0 0.0
2017-May-20 06:54N 39°27' W 000°20'0 0.0
2017-May-20 06:30N 39°27' W 000°20'0 0.0
2017-May-20 06:00N 39°27' W 000°20'2 4.3
2017-May-20 05:30N 39°26' W 000°18'4 8.0
2017-May-20 05:01N 39°25' W 000°13'814.5
2017-May-20 04:27N 39°29' W 000°03'5814.6
2017-May-20 00:30N 39°59' E 001°01'815.5
2017-May-20 00:00N 40°06' E 001°06'815.6
2017-May-19 23:30N 40°12' E 001°12'815.6
2017-May-19 23:00N 40°18' E 001°18'815.4
2017-May-19 22:30N 40°25' E 001°24'815.3
2017-May-19 22:00N 40°31' E 001°30'815.2
2017-May-19 21:28N 40°37' E 001°36'715.2
2017-May-19 21:00N 40°43' E 001°41'815.3
2017-May-19 20:30N 40°50' E 001°47'815.6
2017-May-19 20:00N 40°56' E 001°53'1315.5
2017-May-19 19:09N 41°07' E 002°03'415.6
2017-May-19 18:55N 41°10' E 002°06'615.5
2017-May-19 18:30N 41°15' E 002°11'612.4
2017-May-19 18:00N 41°21' E 002°11'1 1.4
2017-May-19 17:18N 41°22' E 002°11'0 0.0
2017-May-19 17:00N 41°22' E 002°11'0 0.0
2017-May-19 16:30N 41°22' E 002°11'0 0.0
2017-May-19 16:00N 41°22' E 002°11'137 6.7
2017-May-18 19:22N 43°02' E 004°18'817.3
2017-May-18 18:56N 43°02' E 004°29'817.2
2017-May-18 18:27N 43°02' E 004°40'1017.1
2017-May-18 17:52N 43°02' E 004°54'817.7
2017-May-18 17:27N 43°02' E 005°04'817.7
2017-May-18 17:01N 43°02' E 005°14'918.0
2017-May-18 16:31N 43°02' E 005°27'15 1.2
2017-May-18 04:48N 43°01' E 005°47'414.1
2017-May-18 04:30N 42°58' E 005°51'5013.2
2017-May-18 00:43N 43°14' E 006°55'415.1
2017-May-18 00:28N 43°17' E 006°59'715.2
2017-May-18 00:00N 43°22' E 007°05'815.2
2017-May-17 23:30N 43°28' E 007°12'815.3
2017-May-17 23:00N 43°33' E 007°19'815.1
2017-May-17 22:30N 43°39' E 007°26'5 0.3
2017-May-17 05:03N 43°44' E 007°26'0 0.0
2017-May-17 05:00N 43°44' E 007°26'1 1.7
2017-May-17 04:28N 43°44' E 007°27'3 7.6
2017-May-17 04:00N 43°44' E 007°32'713.7
2017-May-17 03:30N 43°43' E 007°41'713.9
2017-May-17 03:00N 43°43' E 007°51'714.1
2017-May-17 02:30N 43°44' E 008°01'714.3
2017-May-17 02:00N 43°45' E 008°10'714.1
2017-May-17 01:30N 43°47' E 008°20'714.5
2017-May-17 01:01N 43°48' E 008°30'714.6
2017-May-17 00:31N 43°50' E 008°39'714.5
2017-May-17 00:01N 43°51' E 008°49'714.5
2017-May-16 23:31N 43°53' E 008°59'714.1
2017-May-16 23:01N 43°55' E 009°09'713.3
2017-May-16 22:30N 43°56' E 009°18'713.5
2017-May-16 22:00N 43°57' E 009°27'714.4
2017-May-16 21:30N 43°58' E 009°37'714.5
2017-May-16 21:00N 43°60' E 009°47'510.1
2017-May-16 20:30N 44°03' E 009°52'0 0.7
2017-May-16 19:59N 44°03' E 009°51'0 0.0
2017-May-16 19:26N 44°03' E 009°51'0 0.0
2017-May-16 18:59N 44°03' E 009°51'0 0.0
2017-May-16 18:29N 44°03' E 009°51'0 0.0
2017-May-16 17:59N 44°03' E 009°51'0 0.0
2017-May-16 17:29N 44°03' E 009°51'0 0.0
2017-May-16 16:59N 44°03' E 009°51'0 0.0
2017-May-16 16:29N 44°03' E 009°51'0 0.0
2017-May-16 15:59N 44°03' E 009°51'0 0.0
2017-May-16 15:29N 44°03' E 009°51'0 0.0
2017-May-16 14:59N 44°03' E 009°51'0 0.1
2017-May-16 14:29N 44°03' E 009°51'0 0.0
2017-May-16 13:29N 44°03' E 009°51'0 0.1
2017-May-16 12:59N 44°03' E 009°51'0 0.0
2017-May-16 12:29N 44°03' E 009°51'0 0.0
2017-May-16 11:59N 44°03' E 009°51'0 0.0
2017-May-16 11:23N 44°03' E 009°51'0 0.1
2017-May-16 10:59N 44°03' E 009°51'0 0.0
2017-May-16 10:29N 44°03' E 009°51'0 0.0
2017-May-16 09:56N 44°03' E 009°51'0 0.0
2017-May-16 09:29N 44°03' E 009°51'0 0.0
2017-May-16 08:59N 44°03' E 009°51'0 0.1
2017-May-16 08:29N 44°03' E 009°51'0 0.0
2017-May-16 07:59N 44°03' E 009°51'0 0.0
2017-May-16 07:29N 44°03' E 009°51'0 0.0
2017-May-16 07:00N 44°03' E 009°51'0 0.0
2017-May-16 06:30N 44°03' E 009°51'0 0.0
2017-May-16 06:00N 44°03' E 009°51'0 0.0
2017-May-16 05:30N 44°03' E 009°51'1 1.9
2017-May-16 05:00N 44°03' E 009°52'4 8.0
2017-May-16 04:30N 43°60' E 009°56'5 9.6
2017-May-16 04:00N 43°55' E 009°55'5 9.1
2017-May-16 03:30N 43°51' E 009°52'5 9.5
2017-May-16 03:00N 43°47' E 009°49'5 9.3
2017-May-16 02:30N 43°43' E 009°46'4 8.3
2017-May-16 02:00N 43°39' E 009°44'3 7.0
2017-May-16 01:30N 43°36' E 009°41'3 6.9
2017-May-16 01:00N 43°33' E 009°39'3 6.4
2017-May-16 00:30N 43°32' E 009°43'3 6.9
2017-May-16 00:00N 43°32' E 009°48'3 6.8
2017-May-15 23:30N 43°31' E 009°53'3 6.7
2017-May-15 23:00N 43°31' E 009°57'3 6.8
2017-May-15 22:30N 43°30' E 010°02'  
Track history (hours):
 
Tides and Currents Weather Stations Pressure Air Temp Water Temp Dewpoint Dewpoint Depression Visibility Wind Speed Wind Dir Waves Ship Positions

Silver Wind

Operator: V Ships Leisure

Last reported at 2017-May-25 22:03 UTC. Time now 2017-May-28 12:21 UTC.
Position N 39°33' W 009°42'.

Length 156 m; draft 5.7 m.

Type: Passenger vessel. MMSI: 308814000.

Date/timePositionNaut miles runAvg speedWind from/ knotsBaromVisibWave heightAir tempDewpointWater temp
2017-May-25 22:03N 39°33' W 009°42'114.8
2017-May-25 22:00N 39°32' W 009°42'914.0
2017-May-25 21:22N 39°24' W 009°43'513.9
2017-May-25 21:00N 39°19' W 009°43'714.0
2017-May-25 20:30N 39°12' W 009°43'714.1
2017-May-25 20:00N 39°05' W 009°43'713.7
2017-May-25 19:30N 38°58' W 009°43'714.3
2017-May-25 19:00N 38°51' W 009°43'713.9
2017-May-25 18:30N 38°44' W 009°42'612.2
2017-May-25 18:01N 38°39' W 009°38'714.1
2017-May-25 17:31N 38°37' W 009°29'612.7
2017-May-25 17:01N 38°38' W 009°21'713.5
2017-May-25 16:30N 38°41' W 009°14'3 5.4
2017-May-25 15:55N 38°42' W 009°10'0 0.0
2017-May-25 15:28N 38°42' W 009°10'0 0.0
2017-May-25 14:52N 38°42' W 009°10'0 0.0
2017-May-25 13:55N 38°42' W 009°10'0 0.0
2017-May-25 13:28N 38°42' W 009°10'0 0.0
2017-May-25 12:58N 38°42' W 009°10'0 0.0
2017-May-25 12:25N 38°42' W 009°10'0 0.0
2017-May-25 11:58N 38°42' W 009°10'0 0.0
2017-May-25 11:28N 38°42' W 009°10'0 0.0
2017-May-25 10:58N 38°42' W 009°10'0 0.0
2017-May-25 10:28N 38°42' W 009°10'0 0.0
2017-May-25 09:58N 38°42' W 009°10'0 0.0
2017-May-25 09:28N 38°42' W 009°10'0 0.0
2017-May-25 08:58N 38°42' W 009°10'0 0.0
2017-May-25 08:28N 38°42' W 009°10'0 0.0
2017-May-25 07:58N 38°42' W 009°10'0 0.0
2017-May-25 07:30N 38°42' W 009°10'0 0.3
2017-May-25 07:00N 38°42' W 009°10'3 5.6
2017-May-25 06:27N 38°41' W 009°14'3 7.4
2017-May-25 06:00N 38°41' W 009°18'611.2
2017-May-25 05:30N 38°37' W 009°23'4 8.6
2017-May-25 05:00N 38°33' W 009°25'611.4
2017-May-25 04:30N 38°27' W 009°25'612.4
2017-May-25 04:00N 38°21' W 009°25'713.3
2017-May-25 03:30N 38°14' W 009°25'713.1
2017-May-25 03:00N 38°08' W 009°25'612.3
2017-May-25 02:30N 38°02' W 009°24'612.0
2017-May-25 02:00N 37°56' W 009°23'611.6
2017-May-25 01:30N 37°50' W 009°23'612.6
2017-May-25 01:00N 37°44' W 009°23'612.3
2017-May-25 00:30N 37°37' W 009°22'612.9
2017-May-25 00:00N 37°31' W 009°22'612.5
2017-May-24 23:30N 37°25' W 009°22'612.4
2017-May-24 23:00N 37°19' W 009°22'612.5
2017-May-24 22:30N 37°12' W 009°22'612.6
2017-May-24 22:00N 37°06' W 009°21'612.4
2017-May-24 21:30N 36°60' W 009°21'612.5
2017-May-24 21:00N 36°54' W 009°19'612.6
2017-May-24 20:30N 36°49' W 009°14'612.2
2017-May-24 20:00N 36°45' W 009°08'1611.1
2017-May-24 18:31N 36°51' W 008°49'213.0
2017-May-24 18:23N 36°52' W 008°48'513.0
2017-May-24 18:00N 36°56' W 008°43'613.1
2017-May-24 17:30N 37°01' W 008°38'713.3
2017-May-24 17:00N 37°06' W 008°33'2 3.5
2017-May-24 16:27N 37°07' W 008°32'0 0.0
2017-May-24 15:57N 37°07' W 008°32'0 0.0
2017-May-24 15:27N 37°07' W 008°32'0 0.0
2017-May-24 14:57N 37°07' W 008°32'0 0.0
2017-May-24 13:57N 37°07' W 008°32'0 0.0
2017-May-24 13:30N 37°07' W 008°32'0 0.0
2017-May-24 13:00N 37°07' W 008°32'0 0.0
2017-May-24 12:30N 37°07' W 008°32'0 0.0
2017-May-24 12:00N 37°07' W 008°32'0 0.0
2017-May-24 11:27N 37°07' W 008°32'0 0.0
2017-May-24 10:57N 37°07' W 008°32'0 0.0
2017-May-24 10:30N 37°07' W 008°32'0 0.0
2017-May-24 09:57N 37°07' W 008°32'0 0.0
2017-May-24 09:30N 37°07' W 008°32'0 0.0
2017-May-24 08:33N 37°07' W 008°32'0 0.0
2017-May-24 08:27N 37°07' W 008°32'0 0.0
2017-May-24 07:48N 37°07' W 008°32'0 0.0
2017-May-24 07:27N 37°07' W 008°32'0 0.0
2017-May-24 07:00N 37°07' W 008°32'0 0.1
2017-May-24 06:30N 37°07' W 008°32'510.2
2017-May-24 06:00N 37°02' W 008°30'612.5
2017-May-24 05:30N 36°60' W 008°23'612.1
2017-May-24 05:01N 36°58' W 008°16'612.1
2017-May-24 04:31N 36°55' W 008°09'612.2
2017-May-24 04:01N 36°53' W 008°01'712.5
2017-May-24 03:27N 36°51' W 007°53'125 4.4
2017-May-22 22:47N 35°60' W 005°31'413.1
2017-May-22 22:30N 36°01' W 005°26'612.3
2017-May-22 22:00N 36°03' W 005°19'612.8
2017-May-22 21:30N 36°06' W 005°12'612.9
2017-May-22 21:00N 36°10' W 005°06'188 6.8
2017-May-21 17:22N 37°11' W 001°24'514.0
2017-May-21 17:00N 37°14' W 001°20'25 2.0
2017-May-21 04:51N 37°33' W 000°59'410.6
2017-May-21 04:27N 37°32' W 000°54'511.9
2017-May-21 04:00N 37°32' W 000°47'611.9
2017-May-21 03:28N 37°33' W 000°39'611.8
2017-May-21 03:00N 37°35' W 000°33'612.5
2017-May-21 02:30N 37°41' W 000°28'1112.6
2017-May-21 01:39N 37°50' W 000°21'1212.5
2017-May-21 00:41N 37°60' W 000°12'2312.5
2017-May-20 22:53N 38°19' E 000°03'512.8
2017-May-20 22:30N 38°23' E 000°07'612.7
2017-May-20 22:00N 38°28' E 000°11'6310.9
2017-May-20 16:16N 39°26' W 000°19'1 3.9
2017-May-20 15:54N 39°27' W 000°20'0 0.0
2017-May-20 15:24N 39°27' W 000°20'0 0.0
2017-May-20 15:00N 39°27' W 000°20'0 0.0
2017-May-20 13:42N 39°27' W 000°20'0 0.0
2017-May-20 12:24N 39°27' W 000°20'0 0.0
2017-May-20 10:36N 39°27' W 000°20'0 0.1
2017-May-20 10:30N 39°27' W 000°20'0 0.0
2017-May-20 09:48N 39°27' W 000°20'0 0.0
2017-May-20 09:24N 39°27' W 000°20'0 0.0
2017-May-20 09:00N 39°27' W 000°20'0 0.0
2017-May-20 08:30N 39°27' W 000°20'0 0.0
2017-May-20 08:00N 39°27' W 000°20'0 0.0
2017-May-20 06:54N 39°27' W 000°20'0 0.0
2017-May-20 06:30N 39°27' W 000°20'0 0.0
2017-May-20 06:00N 39°27' W 000°20'2 4.3
2017-May-20 05:30N 39°26' W 000°18'4 8.0
2017-May-20 05:01N 39°25' W 000°13'814.5
2017-May-20 04:27N 39°29' W 000°03'5814.6
2017-May-20 00:30N 39°59' E 001°01'815.5
2017-May-20 00:00N 40°06' E 001°06'815.6
2017-May-19 23:30N 40°12' E 001°12'815.6
2017-May-19 23:00N 40°18' E 001°18'815.4
2017-May-19 22:30N 40°25' E 001°24'815.3
2017-May-19 22:00N 40°31' E 001°30'815.2
2017-May-19 21:28N 40°37' E 001°36'715.2
2017-May-19 21:00N 40°43' E 001°41'815.3
2017-May-19 20:30N 40°50' E 001°47'815.6
2017-May-19 20:00N 40°56' E 001°53'1315.5
2017-May-19 19:09N 41°07' E 002°03'415.6
2017-May-19 18:55N 41°10' E 002°06'615.5
2017-May-19 18:30N 41°15' E 002°11'612.4
2017-May-19 18:00N 41°21' E 002°11'1 1.4
2017-May-19 17:18N 41°22' E 002°11'0 0.0
2017-May-19 17:00N 41°22' E 002°11'0 0.0
2017-May-19 16:30N 41°22' E 002°11'0 0.0
2017-May-19 16:00N 41°22' E 002°11'137 6.7
2017-May-18 19:22N 43°02' E 004°18'817.3
2017-May-18 18:56N 43°02' E 004°29'817.2
2017-May-18 18:27N 43°02' E 004°40'1017.1
2017-May-18 17:52N 43°02' E 004°54'817.7
2017-May-18 17:27N 43°02' E 005°04'817.7
2017-May-18 17:01N 43°02' E 005°14'918.0
2017-May-18 16:31N 43°02' E 005°27'15 1.2
2017-May-18 04:48N 43°01' E 005°47'414.1
2017-May-18 04:30N 42°58' E 005°51'5013.2
2017-May-18 00:43N 43°14' E 006°55'415.1
2017-May-18 00:28N 43°17' E 006°59'715.2
2017-May-18 00:00N 43°22' E 007°05'815.2
2017-May-17 23:30N 43°28' E 007°12'815.3
2017-May-17 23:00N 43°33' E 007°19'815.1
2017-May-17 22:30N 43°39' E 007°26'5 0.3
2017-May-17 05:03N 43°44' E 007°26'0 0.0
2017-May-17 05:00N 43°44' E 007°26'1 1.7
2017-May-17 04:28N 43°44' E 007°27'3 7.6
2017-May-17 04:00N 43°44' E 007°32'713.7
2017-May-17 03:30N 43°43' E 007°41'713.9
2017-May-17 03:00N 43°43' E 007°51'714.1
2017-May-17 02:30N 43°44' E 008°01'714.3
2017-May-17 02:00N 43°45' E 008°10'714.1
2017-May-17 01:30N 43°47' E 008°20'714.5
2017-May-17 01:01N 43°48' E 008°30'714.6
2017-May-17 00:31N 43°50' E 008°39'714.5
2017-May-17 00:01N 43°51' E 008°49'714.5
2017-May-16 23:31N 43°53' E 008°59'714.1
2017-May-16 23:01N 43°55' E 009°09'713.3
2017-May-16 22:30N 43°56' E 009°18'713.5
2017-May-16 22:00N 43°57' E 009°27'714.4
2017-May-16 21:30N 43°58' E 009°37'714.5
2017-May-16 21:00N 43°60' E 009°47'510.1
2017-May-16 20:30N 44°03' E 009°52'0 0.7
2017-May-16 19:59N 44°03' E 009°51'0 0.0
2017-May-16 19:26N 44°03' E 009°51'0 0.0
2017-May-16 18:59N 44°03' E 009°51'0 0.0
2017-May-16 18:29N 44°03' E 009°51'0 0.0
2017-May-16 17:59N 44°03' E 009°51'0 0.0
2017-May-16 17:29N 44°03' E 009°51'0 0.0
2017-May-16 16:59N 44°03' E 009°51'0 0.0
2017-May-16 16:29N 44°03' E 009°51'0 0.0
2017-May-16 15:59N 44°03' E 009°51'0 0.0
2017-May-16 15:29N 44°03' E 009°51'0 0.0
2017-May-16 14:59N 44°03' E 009°51'0 0.1
2017-May-16 14:29N 44°03' E 009°51'0 0.0
2017-May-16 13:29N 44°03' E 009°51'0 0.1
2017-May-16 12:59N 44°03' E 009°51'0 0.0
2017-May-16 12:29N 44°03' E 009°51'0 0.0
2017-May-16 11:59N 44°03' E 009°51'0 0.0
2017-May-16 11:23N 44°03' E 009°51'0 0.1
2017-May-16 10:59N 44°03' E 009°51'0 0.0
2017-May-16 10:29N 44°03' E 009°51'0 0.0
2017-May-16 09:56N 44°03' E 009°51'0 0.0
2017-May-16 09:29N 44°03' E 009°51'0 0.0
2017-May-16 08:59N 44°03' E 009°51'0 0.1
2017-May-16 08:29N 44°03' E 009°51'0 0.0
2017-May-16 07:59N 44°03' E 009°51'0 0.0
2017-May-16 07:29N 44°03' E 009°51'0 0.0
2017-May-16 07:00N 44°03' E 009°51'0 0.0
2017-May-16 06:30N 44°03' E 009°51'0 0.0
2017-May-16 06:00N 44°03' E 009°51'0 0.0
2017-May-16 05:30N 44°03' E 009°51'1 1.9
2017-May-16 05:00N 44°03' E 009°52'4 8.0
2017-May-16 04:30N 43°60' E 009°56'5 9.6
2017-May-16 04:00N 43°55' E 009°55'5 9.1
2017-May-16 03:30N 43°51' E 009°52'5 9.5
2017-May-16 03:00N 43°47' E 009°49'5 9.3
2017-May-16 02:30N 43°43' E 009°46'4 8.3
2017-May-16 02:00N 43°39' E 009°44'3 7.0
2017-May-16 01:30N 43°36' E 009°41'3 6.9
2017-May-16 01:00N 43°33' E 009°39'3 6.4
2017-May-16 00:30N 43°32' E 009°43'3 6.9
2017-May-16 00:00N 43°32' E 009°48'3 6.8
2017-May-15 23:30N 43°31' E 009°53'3 6.7
2017-May-15 23:00N 43°31' E 009°57'3 6.8
2017-May-15 22:30N 43°30' E 010°02'  

Dump ship's entire track history